CST,Max TemperatureF,Mean TemperatureF,Min TemperatureF,Max Dew PointF,MeanDew PointF,Min DewpointF,Max Humidity, Mean Humidity, Min Humidity, Max Sea Level PressureIn, Mean Sea Level PressureIn, Min Sea Level PressureIn, Max VisibilityMiles, Mean VisibilityMiles, Min VisibilityMiles, Max Wind SpeedMPH, Mean Wind SpeedMPH, Max Gust SpeedMPH,PrecipitationIn, CloudCover, Events, WindDirDegrees
2013-1-1,52,48,44,50,44,40,94,88,80,30.21,30.11,30.01,10,10,7,12,6,16,0.19,8,Rain,345
2013-1-2,44,40,36,40,37,35,93,89,83,30.32,30.26,30.20,10,7,2,8,3,,0.00,7,,325
2013-1-3,50,39,28,36,32,28,97,77,48,30.45,30.39,30.32,10,8,2,9,2,,0.00,1,,352
2013-1-4,51,44,36,38,34,27,91,71,39,30.54,30.45,30.38,10,10,10,8,1,,0.00,6,Rain,2
2013-1-5,45,40,33,41,39,32,96,89,82,30.41,30.35,30.29,10,8,2,8,1,,0.07,7,Rain,162
2013-1-6,56,44,32,44,36,31,99,84,44,30.37,30.32,30.29,10,6,0,6,1,,0.00,4,Fog,328
2013-1-7,56,43,30,36,33,29,97,72,38,30.40,30.29,30.18,10,10,7,7,2,,0.00,0,,89
2013-1-8,56,49,42,54,44,36,92,80,65,30.18,30.12,30.04,10,10,5,10,5,,0.21,8,Rain,98
2013-1-9,60,58,56,58,56,54,94,92,91,30.19,30.12,30.07,10,6,1,17,6,26,1.07,8,Rain,71
2013-1-10,68,61,52,62,58,50,94,85,67,30.08,29.99,29.92,10,10,7,17,6,26,0.04,5,Rain,167
2013-1-11,70,57,44,59,49,43,95,74,46,30.04,29.98,29.91,10,10,3,10,3,,0.00,1,,148
2013-1-12,75,70,64,68,65,60,94,83,67,29.93,29.83,29.72,10,8,1,16,6,26,0.11,8,Rain-Thunderstorm,160
2013-1-13,60,48,36,58,41,34,93,89,83,30.22,30.04,29.76,10,9,1,15,8,26,1.18,7,Rain-Thunderstorm,333
2013-1-14,36,33,29,35,29,27,93,88,84,30.33,30.25,30.19,10,9,2,16,6,24,0.06,6,Snow-Thunderstorm,21
2013-1-15,33,30,29,32,29,26,96,90,85,30.21,30.15,30.07,10,8,2,10,6,17,0.02,7,Rain,12
2013-1-16,42,36,30,33,32,29,97,88,69,30.23,30.18,30.10,10,10,5,12,4,,0.00,6,,342
2013-1-17,59,42,26,38,31,25,96,71,37,30.50,30.34,30.21,10,10,7,9,2,16,0.00,0,,334
2013-1-18,58,45,32,32,29,18,92,60,22,30.58,30.47,30.37,10,10,10,8,3,,0.00,0,,97
2013-1-19,60,46,31,36,32,28,91,65,30,30.37,30.29,30.22,10,10,10,7,3,,0.00,0,,151
2013-1-20,66,50,33,48,39,32,96,72,36,30.28,30.21,30.14,10,10,10,8,1,,0.00,0,,171
2013-1-21,54,46,38,44,36,30,94,70,45,30.29,30.24,30.15,10,10,2,10,2,,0.00,4,,59
2013-1-22,57,46,35,37,30,23,68,55,37,30.39,30.31,30.27,10,10,10,7,4,,0.00,6,,91
2013-1-23,73,56,39,50,44,32,83,63,40,30.34,30.27,30.20,10,10,10,12,4,16,0.00,2,,174
2013-1-24,61,56,50,60,53,49,95,92,82,30.28,30.22,30.16,10,4,0,10,4,,0.01,7,Fog-Rain,119
2013-1-25,68,58,47,59,52,43,95,87,71,30.22,30.15,30.09,10,8,1,12,5,16,0.00,8,Rain,124
2013-1-26,50,48,45,45,42,39,94,81,71,30.28,30.22,30.19,10,8,0,10,5,,0.00,8,Fog,83
2013-1-27,75,60,46,60,53,45,95,78,53,30.20,30.14,30.06,10,6,0,13,5,17,0.00,6,Fog,143
2013-1-28,76,70,64,63,62,60,91,77,58,30.15,30.08,30.01,10,10,7,14,8,22,0.00,7,Rain,154
2013-1-29,76,66,55,66,62,52,89,78,68,30.00,29.78,29.56,10,10,5,21,10,40,0.18,8,Rain-Thunderstorm,165
2013-1-30,55,44,32,53,37,26,93,68,42,30.15,29.90,29.68,10,10,10,22,7,34,0.00,5,Rain,272
2013-1-31,63,46,29,34,28,22,95,57,21,30.29,30.21,30.14,10,10,10,14,3,20,0.00,0,,211